Portada
METAR-TAF:

METAR-TAF

Aeroports :

Dimapur, Índia

latitud: 25-53-02N, longitud: 093-46-16E, altitud: 148 m

METAR: manca

Hora: 19:49 (14:19 UTC)

Pronòstic

L'informe es va fer fa 6 hores i 19 minuts, a les 08:00 UTC
Pronòstic vàlid del 07 a les 09 UTC al 07 a les 18 UTC
Vent 6 kt del Nord-Oest
Visibilitat: 5000 m
Escasses núvols a una alçada de 1800 ft
Escasses núvols a una alçada de 2500 ft, Cumulonimbus.
Núvols disperses a una alçada de 10000 ft
tempesta, calitja
Evolucionant progressivament
l' 07 a les 13 UTC al 07 a les 15 UTC
Vent 4 kt del Oest
Visibilitat: 3000 m
Núvols disperses a una alçada de 1800 ft
Núvols disperses a una alçada de 10000 ft
calitja

TAF: VEMR 070800Z 0709/0718 32006KT 5000 TS HZ FEW018 FEW025CB SCT100 BECMG 0713/0715 27004KT 3000 HZ SCT018 SCT100

Observacions i pronòstics meteorològics de més de 4000 aeroports (METAR i TAF).

Les estacions disponibles són els punts grocs i vermells al mapa.

Posi el ratolí al punt desitjat per veure el nom de l'estació.

Feu clic per veure les observacions i els pronòstics meteorològics.

Per canviar el mapa: feu clic els botons verds amb una creu de color negre per apropar; al botó verd amb un guió per allunyar la imatge; o en les fletxes verdes per a mapes adjacents.


METAR-TAF: